Time;durP1;ratioP1;P1;durP2;ratioP2;P2;SDS_P1;SDS_P2;PMS_P1;PMS_P2;Temp;Humidity;BMP_temperature;BMP_pressure;BME280_temperature;BME280_humidity;BME280_pressure;Samples;Min_cycle;Max_cycle;Signal;HPM_P1;HPM_P2
2022/09/21 00:00:37;;;;;;;1999.90;999.90;;;12.40;99.90;;;;;;5094637;28;20050;-81
2022/09/21 00:03:03;;;;;;;1999.90;999.90;;;12.30;99.90;;;;;;5094973;28;20122;-80
2022/09/21 00:05:30;;;;;;;1999.90;999.90;;;12.30;99.90;;;;;;5113063;28;20081;-87
2022/09/21 00:08:00;;;;;;;1999.90;999.90;;;12.30;99.90;;;;;;5112825;28;20108;-81
2022/09/21 00:10:25;;;;;;;1999.90;999.90;;;12.30;99.90;;;;;;5112849;28;20036;-82
2022/09/21 00:12:51;;;;;;;1999.90;999.90;;;12.30;99.90;;;;;;5094764;28;20043;-79
2022/09/21 00:15:18;;;;;;;1999.90;999.90;;;12.30;99.90;;;;;;5112085;28;20051;-81
2022/09/21 00:17:46;;;;;;;1999.90;999.90;;;12.20;99.90;;;;;;5112265;28;20407;-80
2022/09/21 00:20:13;;;;;;;1999.90;999.90;;;12.20;99.90;;;;;;5111891;28;20104;-85
2022/09/21 00:22:40;;;;;;;1999.90;999.90;;;12.20;99.90;;;;;;5111188;28;20050;-81
2022/09/21 00:25:07;;;;;;;1999.90;999.90;;;12.20;99.90;;;;;;5113035;28;20039;-80
2022/09/21 00:27:33;;;;;;;1999.90;999.90;;;12.20;99.90;;;;;;5111809;28;20274;-80
2022/09/21 00:30:02;;;;;;;1999.90;999.90;;;12.10;99.90;;;;;;5094407;28;20288;-79
2022/09/21 00:32:30;;;;;;;1999.90;999.90;;;12.10;99.90;;;;;;5112275;28;20074;-79
2022/09/21 00:34:57;;;;;;;1999.90;999.90;;;12.10;99.90;;;;;;5077720;28;20046;-79
2022/09/21 00:37:24;;;;;;;1999.90;999.90;;;12.10;99.90;;;;;;5110399;28;20054;-80
2022/09/21 00:39:50;;;;;;;1999.90;999.90;;;12.00;99.90;;;;;;5112226;28;20479;-80
2022/09/21 00:42:23;;;;;;;1999.90;999.90;;;12.10;99.90;;;;;;5094720;28;20044;-79
2022/09/21 00:44:49;;;;;;;1999.90;999.90;;;12.00;99.90;;;;;;5112040;28;20043;-80
2022/09/21 00:47:20;;;;;;;1999.90;999.90;;;12.00;99.90;;;;;;5111909;28;20431;-80
2022/09/21 00:49:50;;;;;;;1999.90;999.90;;;12.00;99.90;;;;;;5112700;28;20039;-79
2022/09/21 00:52:18;;;;;;;1999.90;999.90;;;12.00;99.90;;;;;;5111828;28;20108;-79
2022/09/21 00:54:52;;;;;;;1999.90;999.90;;;11.90;99.90;;;;;;5111683;28;20040;-79
2022/09/21 00:57:21;;;;;;;1999.90;999.90;;;11.90;99.90;;;;;;5111638;28;20047;-83
2022/09/21 00:59:49;;;;;;;1999.90;999.90;;;11.90;99.90;;;;;;5112123;28;20044;-79
2022/09/21 01:02:16;;;;;;;1999.90;999.90;;;11.90;99.90;;;;;;5111479;28;20035;-79
2022/09/21 01:04:44;;;;;;;1999.90;999.90;;;11.90;99.90;;;;;;5095385;28;20412;-79
2022/09/21 01:07:14;;;;;;;1999.90;999.90;;;11.80;99.90;;;;;;5115311;28;20035;-79
2022/09/21 01:09:43;;;;;;;1999.90;999.90;;;11.80;99.90;;;;;;5115292;28;20043;-79
2022/09/21 01:12:23;;;;;;;1999.90;999.90;;;11.80;99.90;;;;;;5097876;28;20143;-79
2022/09/21 01:15:47;;;;;;;1999.90;999.90;;;11.80;99.90;;;;;;5097455;28;20047;-80
2022/09/21 01:18:28;;;;;;;1999.90;999.90;;;11.80;99.90;;;;;;5031971;28;20148;-79
2022/09/21 01:21:05;;;;;;;1999.90;999.90;;;11.80;99.90;;;;;;5032692;28;20049;-79
2022/09/21 01:23:57;;;;;;;1999.90;999.90;;;11.80;99.90;;;;;;5084223;28;20043;-79
2022/09/21 01:26:44;;;;;;;1999.90;999.90;;;11.80;99.90;;;;;;5077132;28;20415;-90
2022/09/21 01:29:42;;;;;;;1999.90;999.90;;;11.80;99.90;;;;;;5114865;28;20043;-85
2022/09/21 01:32:17;;;;;;;1999.90;999.90;;;11.80;99.90;;;;;;5109204;28;20051;-80
2022/09/21 01:35:09;;;;;;;1999.90;999.90;;;11.70;99.90;;;;;;5114757;28;20054;-81
2022/09/21 01:37:51;;;;;;;1999.90;999.90;;;11.70;99.90;;;;;;5114568;28;20383;-80
2022/09/21 01:40:29;;;;;;;1999.90;999.90;;;11.70;99.90;;;;;;5113886;28;20122;-80
2022/09/21 01:42:57;;;;;;;1999.90;999.90;;;11.70;99.90;;;;;;5111433;28;20086;-81
2022/09/21 01:45:29;;;;;;;1999.90;999.90;;;11.70;99.90;;;;;;5114516;28;20043;-80
2022/09/21 01:47:58;;;;;;;1999.90;999.90;;;11.70;99.90;;;;;;5115016;28;20487;-80
2022/09/21 01:50:28;;;;;;;1999.90;999.90;;;11.70;99.90;;;;;;5114491;28;20050;-85
2022/09/21 01:53:11;;;;;;;1999.90;999.90;;;11.70;99.90;;;;;;5115231;28;20119;-80
2022/09/21 01:55:45;;;;;;;1999.90;999.90;;;11.60;99.90;;;;;;5114919;28;20116;-83
2022/09/21 01:58:21;;;;;;;1999.90;999.90;;;11.60;99.90;;;;;;5096175;28;20061;-79
2022/09/21 02:00:51;;;;;;;1999.90;999.90;;;11.50;99.90;;;;;;5114872;28;20242;-79
2022/09/21 02:03:34;;;;;;;1999.90;999.90;;;11.50;99.90;;;;;;5114896;28;20044;-80
2022/09/21 02:06:01;;;;;;;1999.90;999.90;;;11.50;99.90;;;;;;5079808;28;20052;-80
2022/09/21 02:08:31;;;;;;;1999.90;999.90;;;11.90;99.90;;;;;;5096193;28;20077;-80
2022/09/21 02:11:00;;;;;;;1999.90;999.90;;;11.40;99.90;;;;;;5114729;28;20040;-80
2022/09/21 02:13:31;;;;;;;1999.90;999.90;;;11.40;99.90;;;;;;5114720;28;20494;-80
2022/09/21 02:16:05;;;;;;;1999.90;999.90;;;11.50;99.90;;;;;;5114778;28;20449;-80
2022/09/21 02:18:56;;;;;;;1999.90;999.90;;;11.40;99.90;;;;;;5114496;28;20047;-81
2022/09/21 02:21:39;;;;;;;1999.90;999.90;;;11.40;99.90;;;;;;5115261;28;20061;-82
2022/09/21 02:24:14;;;;;;;1999.90;999.90;;;11.40;99.90;;;;;;5116448;28;20333;-81
2022/09/21 02:26:48;;;;;;;1999.90;999.90;;;11.40;99.90;;;;;;5114654;28;20092;-80
2022/09/21 02:29:27;;;;;;;1999.90;999.90;;;11.40;99.90;;;;;;5114656;28;20071;-81
2022/09/21 02:32:07;;;;;;;1999.90;999.90;;;11.40;99.90;;;;;;5114487;28;20352;-80
2022/09/21 02:35:11;;;;;;;1999.90;999.90;;;11.40;99.90;;;;;;5114636;28;20399;-84
2022/09/21 02:37:55;;;;;;;1999.90;999.90;;;11.30;99.90;;;;;;5100938;28;20047;-81
2022/09/21 02:40:42;;;;;;;1999.90;999.90;;;11.30;99.90;;;;;;5096382;28;20475;-84
2022/09/21 02:43:29;;;;;;;1999.90;999.90;;;11.30;99.90;;;;;;5113928;28;20138;-81
2022/09/21 02:46:22;;;;;;;1999.90;999.90;;;11.30;99.90;;;;;;5096309;28;20047;-81
2022/09/21 02:48:53;;;;;;;1999.90;999.90;;;11.30;99.90;;;;;;5103092;28;20415;-80
2022/09/21 02:51:30;;;;;;;1999.90;999.90;;;11.30;99.90;;;;;;5113676;28;20517;-80
2022/09/21 02:53:59;;;;;;;1999.90;999.90;;;11.30;99.90;;;;;;5114424;28;20379;-80
2022/09/21 02:56:26;;;;;;;1999.90;999.90;;;11.30;99.90;;;;;;5113291;28;20089;-81
2022/09/21 02:58:56;;;;;;;1999.90;999.90;;;11.60;99.90;;;;;;5113099;28;20054;-84
2022/09/21 03:01:24;;;;;;;1999.90;999.90;;;12.70;99.90;;;;;;5113860;28;20043;-80
2022/09/21 03:03:49;;;;;;;1999.90;999.90;;;11.60;99.90;;;;;;5113612;28;20043;-80
2022/09/21 03:06:15;;;;;;;1999.90;999.90;;;11.20;99.90;;;;;;5113966;28;20131;-80
2022/09/21 03:08:40;;;;;;;1999.90;999.90;;;10.70;99.90;;;;;;5113068;28;20047;-80
2022/09/21 03:11:07;;;;;;;1999.90;999.90;;;11.20;99.90;;;;;;5113677;28;20035;-80
2022/09/21 03:13:33;;;;;;;1999.90;999.90;;;11.30;99.90;;;;;;5077055;28;20035;-88
2022/09/21 03:16:04;;;;;;;1999.90;999.90;;;11.20;99.90;;;;;;5112907;28;20058;-85
2022/09/21 03:18:31;;;;;;;1999.90;999.90;;;11.10;99.90;;;;;;5094213;28;20056;-81
2022/09/21 03:20:57;;;;;;;1999.90;999.90;;;11.10;99.90;;;;;;5112210;28;20118;-81
2022/09/21 03:23:22;;;;;;;1999.90;999.90;;;11.10;99.90;;;;;;5112641;28;20127;-84
2022/09/21 03:25:49;;;;;;;1999.90;999.90;;;12.70;99.90;;;;;;5094784;28;20425;-80
2022/09/21 03:28:15;;;;;;;1999.90;999.90;;;12.10;99.90;;;;;;5112082;28;20039;-80
2022/09/21 03:30:41;;;;;;;1999.90;999.90;;;11.40;99.90;;;;;;5094311;28;20043;-82
2022/09/21 03:33:07;;;;;;;1999.90;999.90;;;11.30;99.90;;;;;;5113116;28;20042;-81
2022/09/21 03:35:33;;;;;;;1999.90;999.90;;;11.50;99.90;;;;;;5111738;28;20043;-80
2022/09/21 03:37:59;;;;;;;1999.90;999.90;;;10.90;99.90;;;;;;5112720;28;20093;-80
2022/09/21 03:40:26;;;;;;;1999.90;999.90;;;10.90;99.90;;;;;;5112988;28;20050;-80
2022/09/21 03:42:52;;;;;;;1999.90;999.90;;;10.90;99.90;;;;;;5111830;28;20507;-80
2022/09/21 03:45:20;;;;;;;1999.90;999.90;;;11.00;99.90;;;;;;5112292;28;20050;-80
2022/09/21 03:47:47;;;;;;;1999.90;999.90;;;11.50;99.90;;;;;;5112419;28;20153;-80
2022/09/21 03:50:13;;;;;;;1999.90;999.90;;;11.00;99.90;;;;;;5094514;28;20048;-80
2022/09/21 03:52:39;;;;;;;1999.90;999.90;;;11.00;99.90;;;;;;5111855;28;20047;-82
2022/09/21 03:55:07;;;;;;;1999.90;999.90;;;11.00;99.90;;;;;;5111663;28;20125;-80
2022/09/21 03:57:34;;;;;;;1999.90;999.90;;;11.00;99.90;;;;;;5112538;28;20040;-80
2022/09/21 04:00:02;;;;;;;1999.90;999.90;;;10.90;99.90;;;;;;5112080;28;20048;-81
2022/09/21 04:02:28;;;;;;;1999.90;999.90;;;10.90;99.90;;;;;;5112630;28;20035;-80
2022/09/21 04:04:54;;;;;;;1999.90;999.90;;;11.10;99.90;;;;;;5111368;28;20065;-80
2022/09/21 04:07:20;;;;;;;1999.90;999.90;;;11.00;99.90;;;;;;5112031;28;20582;-81
2022/09/21 04:09:46;;;;;;;1999.90;999.90;;;10.90;99.90;;;;;;5112334;28;20050;-88
2022/09/21 04:12:12;;;;;;;1999.90;999.90;;;10.90;99.90;;;;;;5110650;28;20060;-80
2022/09/21 04:14:37;;;;;;;1999.90;999.90;;;10.90;99.90;;;;;;5111882;28;20119;-80
2022/09/21 04:17:03;;;;;;;1999.90;999.90;;;10.90;99.90;;;;;;5103015;28;20512;-80
2022/09/21 04:19:29;;;;;;;1999.90;999.90;;;11.60;99.90;;;;;;5091708;28;20389;-79
2022/09/21 04:21:55;;;;;;;1999.90;999.90;;;10.80;99.90;;;;;;5091393;28;20058;-80
2022/09/21 04:24:21;;;;;;;1999.90;999.90;;;11.10;99.90;;;;;;5091095;28;20062;-80
2022/09/21 04:26:47;;;;;;;1999.90;999.90;;;12.40;99.90;;;;;;5090672;28;20048;-89
2022/09/21 04:29:14;;;;;;;1999.90;999.90;;;11.40;99.90;;;;;;5091834;28;20043;-82
2022/09/21 04:31:40;;;;;;;1999.90;999.90;;;10.70;99.90;;;;;;5090112;28;20109;-79
2022/09/21 04:34:06;;;;;;;1999.90;999.90;;;11.30;99.90;;;;;;5092503;28;20052;-79
2022/09/21 04:36:32;;;;;;;1999.90;999.90;;;10.70;99.90;;;;;;5092554;28;20128;-82
2022/09/21 04:38:59;;;;;;;1999.90;999.90;;;10.70;99.90;;;;;;5095068;28;20106;-79
2022/09/21 04:41:25;;;;;;;1999.90;999.90;;;12.00;99.90;;;;;;5095507;28;20142;-79
2022/09/21 04:43:51;;;;;;;1999.90;999.90;;;10.70;99.90;;;;;;5096368;28;20047;-80
2022/09/21 04:46:19;;;;;;;1999.90;999.90;;;10.70;99.90;;;;;;5094420;28;20048;-80
2022/09/21 04:48:45;;;;;;;1999.90;999.90;;;11.10;99.90;;;;;;5096054;28;20481;-80
2022/09/21 04:51:13;;;;;;;1999.90;999.90;;;11.50;99.90;;;;;;5095483;28;20048;-85
2022/09/21 04:53:41;;;;;;;1999.90;999.90;;;10.60;99.90;;;;;;5096069;28;20094;-79
2022/09/21 04:56:08;;;;;;;1999.90;999.90;;;10.60;99.90;;;;;;5094227;28;20492;-80
2022/09/21 04:58:34;;;;;;;1999.90;999.90;;;11.10;99.90;;;;;;5095761;28;20052;-79
2022/09/21 05:01:00;;;;;;;1999.90;999.90;;;10.50;99.90;;;;;;5094113;28;20050;-80
2022/09/21 05:03:26;;;;;;;1999.90;999.90;;;10.80;99.90;;;;;;5095889;28;20067;-80
2022/09/21 05:05:54;;;;;;;1999.90;999.90;;;10.50;99.90;;;;;;5094434;28;20052;-90
2022/09/21 05:10:01;;;;;;;;;;;10.50;99.90;;;;;;5096212;28;20047;-84
2022/09/21 05:11:08;;;;;;;1999.90;999.90;;;11.50;99.90;;;;;;5094671;28;19920;-80
2022/09/21 05:13:34;;;;;;;1999.90;999.90;;;10.40;99.90;;;;;;5094889;28;20396;-80
2022/09/21 05:16:00;;;;;;;1999.90;999.90;;;10.50;99.90;;;;;;5093488;28;20059;-82
2022/09/21 05:18:26;;;;;;;1999.90;999.90;;;10.50;99.90;;;;;;5114258;28;20055;-84
2022/09/21 05:20:59;;;;;;;1999.90;999.90;;;10.50;99.90;;;;;;5115451;28;20400;-83
2022/09/21 05:23:30;;;;;;;1999.90;999.90;;;11.00;99.90;;;;;;5096706;28;20449;-79
2022/09/21 05:25:57;;;;;;;1999.90;999.90;;;12.10;99.90;;;;;;5113264;28;20052;-79
2022/09/21 05:28:23;;;;;;;1999.90;999.90;;;11.00;99.90;;;;;;5094590;28;20047;-79
2022/09/21 05:31:26;;;;;;;1999.90;999.90;;;10.50;99.90;;;;;;5114834;28;20512;-84
2022/09/21 05:33:58;;;;;;;1999.90;999.90;;;10.50;99.90;;;;;;5097728;28;20061;-83
2022/09/21 05:36:48;;;;;;;1999.90;999.90;;;10.50;99.90;;;;;;5115312;28;20177;-85
2022/09/21 05:39:14;;;;;;;1999.90;999.90;;;10.50;99.90;;;;;;5115145;28;20469;-84
2022/09/21 05:41:41;;;;;;;1999.90;999.90;;;10.50;99.90;;;;;;5114077;28;20083;-83
2022/09/21 05:44:09;;;;;;;1999.90;999.90;;;10.50;99.90;;;;;;5115007;28;20126;-84
2022/09/21 05:46:38;;;;;;;1999.90;999.90;;;10.50;99.90;;;;;;5115319;28;20047;-85
2022/09/21 05:49:14;;;;;;;1999.90;999.90;;;10.60;99.90;;;;;;5096593;28;20104;-84
2022/09/21 05:52:04;;;;;;;1999.90;999.90;;;10.70;99.90;;;;;;5097450;28;20043;-83
2022/09/21 05:54:42;;;;;;;1999.90;999.90;;;10.60;99.90;;;;;;5080043;28;20050;-83
2022/09/21 05:57:32;;;;;;;1999.90;999.90;;;10.60;99.90;;;;;;5114621;28;20051;-83
2022/09/21 06:00:17;;;;;;;1999.90;999.90;;;10.70;99.90;;;;;;5114926;28;20162;-86
2022/09/21 06:02:48;;;;;;;1999.90;999.90;;;10.70;99.90;;;;;;5080467;28;20116;-84
2022/09/21 06:05:15;;;;;;;1999.90;999.90;;;10.70;99.90;;;;;;5096535;28;20442;-84
2022/09/21 06:07:40;;;;;;;1999.90;999.90;;;10.70;99.90;;;;;;5080140;28;20051;-83
2022/09/21 06:10:11;;;;;;;1999.90;999.90;;;10.80;99.90;;;;;;5079878;28;20514;-84
2022/09/21 06:12:37;;;;;;;1999.90;999.90;;;10.80;99.90;;;;;;5115146;28;20051;-84
2022/09/21 06:15:06;;;;;;;1999.90;999.90;;;12.50;99.90;;;;;;5079832;28;20056;-87
2022/09/21 06:17:32;;;;;;;1999.90;999.90;;;10.90;99.90;;;;;;5096606;28;20052;-87
2022/09/21 06:19:58;;;;;;;1999.90;999.90;;;11.10;99.90;;;;;;5114753;28;20100;-84
2022/09/21 06:22:24;;;;;;;1999.90;999.90;;;12.00;99.90;;;;;;5095600;28;20066;-84
2022/09/21 06:24:49;;;;;;;1999.90;999.90;;;11.00;99.90;;;;;;5096541;28;20127;-85
2022/09/21 06:27:15;;;;;;;1999.90;999.90;;;11.20;99.90;;;;;;5113009;28;20480;-84
2022/09/21 06:29:41;;;;;;;1999.90;999.90;;;11.10;99.90;;;;;;5113532;28;20054;-84
2022/09/21 06:32:06;;;;;;;1999.90;999.90;;;11.70;99.90;;;;;;5079434;28;20106;-84
2022/09/21 06:34:32;;;;;;;1999.90;999.90;;;11.30;99.90;;;;;;5079986;28;20043;-84
2022/09/21 06:37:02;;;;;;;1999.90;999.90;;;13.10;99.90;;;;;;5096147;28;20411;-83
2022/09/21 06:39:27;;;;;;;1999.90;999.90;;;11.40;99.90;;;;;;5114649;28;20050;-83
2022/09/21 06:41:53;;;;;;;1999.90;999.90;;;11.50;99.90;;;;;;5113479;28;20039;-83
2022/09/21 06:44:19;;;;;;;1999.90;999.90;;;11.40;99.90;;;;;;5095808;28;20145;-84
2022/09/21 06:46:45;;;;;;;1999.90;999.90;;;11.60;99.90;;;;;;5096316;28;20060;-84
2022/09/21 06:49:10;;;;;;;1999.90;999.90;;;12.40;99.90;;;;;;5112380;28;20400;-85
2022/09/21 06:51:36;;;;;;;1999.90;999.90;;;11.80;99.90;;;;;;5095581;28;20046;-85
2022/09/21 06:54:02;;;;;;;1999.90;999.90;;;11.70;99.90;;;;;;5113657;28;20054;-84
2022/09/21 06:56:28;;;;;;;1999.90;999.90;;;11.90;99.90;;;;;;5078958;28;20148;-84
2022/09/21 06:58:54;;;;;;;1999.90;999.90;;;13.40;99.90;;;;;;5113956;28;20055;-84
2022/09/21 07:01:20;;;;;;;1999.90;999.90;;;12.00;99.90;;;;;;5093545;28;20126;-84
2022/09/21 07:03:49;;;;;;;1999.90;999.90;;;13.10;99.90;;;;;;5095967;28;20039;-84
2022/09/21 07:06:16;;;;;;;1999.90;999.90;;;14.00;99.90;;;;;;5078352;28;20058;-84
2022/09/21 07:08:45;;;;;;;1999.90;999.90;;;12.30;99.90;;;;;;5096067;28;20130;-84
2022/09/21 07:11:12;;;;;;;1999.90;999.90;;;11.20;99.90;;;;;;5094861;28;20105;-88
2022/09/21 07:13:39;;;;;;;1999.90;999.90;;;12.50;99.90;;;;;;5113839;28;20043;-85
2022/09/21 07:16:07;;;;;;;1999.90;999.90;;;12.60;99.90;;;;;;5095008;28;20040;-84
2022/09/21 07:18:33;;;;;;;1999.90;999.90;;;12.60;99.90;;;;;;5113016;28;20047;-85
2022/09/21 07:21:06;;;;;;;1999.90;999.90;;;12.70;99.90;;;;;;5095202;28;20500;-85
2022/09/21 07:23:32;;;;;;;1999.90;999.90;;;12.80;99.90;;;;;;5094883;28;20047;-85
2022/09/21 07:26:05;;;;;;;1999.90;999.90;;;13.00;99.90;;;;;;5095133;28;20555;-84
2022/09/21 07:28:31;;;;;;;1999.90;999.90;;;13.10;99.90;;;;;;5094827;28;20441;-85
2022/09/21 07:30:58;;;;;;;1999.90;999.90;;;13.20;99.90;;;;;;5095125;28;20047;-85
2022/09/21 07:33:24;;;;;;;1999.90;999.90;;;13.30;99.90;;;;;;5094739;28;20089;-84
2022/09/21 07:35:52;;;;;;;1999.90;999.90;;;13.50;99.90;;;;;;5078163;28;20047;-85
2022/09/21 07:38:18;;;;;;;1999.90;999.90;;;15.10;99.90;;;;;;5094830;28;20392;-84
2022/09/21 07:40:44;;;;;;;1999.90;999.90;;;16.70;99.90;;;;;;5113145;28;20051;-84
2022/09/21 07:43:09;;;;;;;1999.90;999.90;;;18.30;99.90;;;;;;5077287;28;20039;-85
2022/09/21 07:45:35;;;;;;;1999.90;999.90;;;19.40;99.90;;;;;;5113274;28;20054;-84
2022/09/21 07:48:05;;;;;;;1999.90;999.90;;;20.50;99.90;;;;;;5094355;28;20047;-84
2022/09/21 07:50:33;;;;;;;1999.90;999.90;;;21.30;99.90;;;;;;5078155;28;20135;-84
2022/09/21 07:52:59;;;;;;;1999.90;999.90;;;22.20;99.90;;;;;;5077918;28;20040;-85
2022/09/21 07:55:25;;;;;;;1999.90;999.90;;;23.10;99.90;;;;;;5112860;28;20047;-85
2022/09/21 08:00:37;;;;;;;1999.90;999.90;;;24.50;99.90;;;;;;5095270;28;20056;-83
2022/09/21 08:03:03;;;;;;;1999.90;999.90;;;25.30;99.90;;;;;;5094590;28;20127;-84
2022/09/21 08:05:30;;;;;;;1999.90;999.90;;;25.90;99.90;;;;;;5077639;28;20508;-85
2022/09/21 08:07:56;;;;;;;1999.90;985.88;;;26.40;99.90;;;;;;5112660;28;20385;-83
2022/09/21 08:10:23;;;;;;;1999.90;999.90;;;26.80;99.90;;;;;;5094503;28;20040;-82
2022/09/21 08:12:49;;;;;;;1999.90;999.90;;;27.40;99.90;;;;;;5112415;28;20177;-83
2022/09/21 08:15:16;;;;;;;1999.90;999.90;;;27.80;99.90;;;;;;5094626;28;20119;-85
2022/09/21 08:17:43;;;;;;;1111.03;986.40;;;28.30;99.90;;;;;;5061060;28;20055;-81
2022/09/21 08:20:09;;;;;;;986.10;896.13;;;28.60;99.90;;;;;;5112887;28;20051;-81
2022/09/21 08:22:35;;;;;;;910.38;834.72;;;29.20;99.90;;;;;;5094060;28;20054;-82
2022/09/21 08:25:00;;;;;;;595.90;554.08;;;28.90;99.90;;;;;;5094752;28;20046;-83
2022/09/21 08:27:27;;;;;;;382.02;359.55;;;29.00;99.90;;;;;;5093997;28;20043;-84
2022/09/21 08:29:52;;;;;;;404.00;377.55;;;29.70;99.90;;;;;;5112354;28;20054;-82
2022/09/21 08:32:18;;;;;;;259.70;244.73;;;29.60;99.90;;;;;;5112071;28;20047;-83
2022/09/21 08:34:44;;;;;;;394.35;370.95;;;30.10;99.90;;;;;;5094084;28;20047;-83
2022/09/21 08:37:10;;;;;;;275.88;260.17;;;30.30;99.90;;;;;;5094550;28;20048;-84
2022/09/21 08:39:36;;;;;;;280.65;264.52;;;29.90;99.90;;;;;;5093741;28;20043;-83
2022/09/21 08:42:20;;;;;;;400.05;372.02;;;30.20;99.90;;;;;;5112243;28;20118;-86
2022/09/21 08:44:55;;;;;;;362.52;340.15;;;29.70;99.90;;;;;;5093675;28;20039;-83
2022/09/21 08:47:39;;;;;;;509.75;471.98;;;30.40;99.90;;;;;;5111963;28;20055;-82
2022/09/21 08:50:32;;;;;;;1107.72;975.67;;;30.80;99.90;;;;;;5094680;28;20132;-83
2022/09/21 08:53:11;;;;;;;1048.30;898.22;;;31.40;99.90;;;;;;5094216;28;20071;-84
2022/09/21 08:55:36;;;;;;;;;;;31.60;99.90;;;;;;5092832;28;20093;-83
2022/09/21 08:58:02;;;;;;;995.85;881.47;;;31.70;99.90;;;;;;5074922;28;19920;-86
2022/09/21 09:00:34;;;;;;;1720.70;999.90;;;31.40;99.90;;;;;;5109741;28;20044;-82
2022/09/21 09:03:37;;;;;;;1719.45;999.90;;;31.50;99.90;;;;;;5111164;28;20067;-83
2022/09/21 09:06:13;;;;;;;1772.60;999.90;;;32.20;99.90;;;;;;5112245;28;20052;-87
2022/09/21 09:08:58;;;;;;;1994.45;999.90;;;32.30;99.90;;;;;;5092884;28;20055;-83
2022/09/21 09:11:47;;;;;;;1999.90;992.30;;;31.80;99.90;;;;;;5110144;28;20523;-82
2022/09/21 09:14:57;;;;;;;1999.90;999.90;;;30.90;99.90;;;;;;5111417;28;20487;-86
2022/09/21 09:17:38;;;;;;;1999.90;999.90;;;30.10;99.90;;;;;;5111557;28;20492;-83
2022/09/21 09:20:14;;;;;;;1719.57;994.08;;;30.80;99.90;;;;;;5111431;28;20510;-82
2022/09/21 09:22:45;;;;;;;1999.90;999.90;;;31.40;99.90;;;;;;5111623;28;20518;-83
2022/09/21 09:25:25;;;;;;;1999.90;999.90;;;31.50;99.90;;;;;;5113343;28;20518;-84
2022/09/21 09:27:58;;;;;;;1999.90;811.72;;;30.80;99.90;;;;;;5115643;28;20055;-83
2022/09/21 09:30:25;;;;;;;1431.18;376.35;;;30.80;99.90;;;;;;5097619;28;20050;-83
2022/09/21 09:32:51;;;;;;;;;;;31.10;99.90;;;;;;5115705;28;20047;-85
2022/09/21 09:35:38;;;;;;;1999.90;999.90;;;31.00;99.90;;;;;;5115631;28;19920;-83
2022/09/21 09:38:27;;;;;;;1999.90;999.90;;;31.10;99.90;;;;;;5080358;28;20044;-84
2022/09/21 09:41:02;;;;;;;1999.90;888.83;;;31.30;99.90;;;;;;5097764;28;20095;-85
2022/09/21 09:44:00;;;;;;;1999.90;933.75;;;31.60;99.90;;;;;;5096157;28;20035;-84
2022/09/21 09:46:44;;;;;;;1999.90;999.90;;;32.20;99.90;;;;;;5076874;28;20058;-84
2022/09/21 09:49:36;;;;;;;1999.90;999.90;;;31.60;99.90;;;;;;5080341;28;20530;-84
2022/09/21 09:52:04;;;;;;;1999.90;696.63;;;31.50;99.90;;;;;;5115290;28;20039;-84
2022/09/21 09:54:33;;;;;;;1999.90;999.90;;;32.30;99.90;;;;;;5114370;28;20092;-84
2022/09/21 09:57:04;;;;;;;1999.90;999.90;;;32.90;99.90;;;;;;5096500;28;20074;-85
2022/09/21 09:59:45;;;;;;;1999.90;999.90;;;32.00;99.90;;;;;;5115113;28;20067;-84
2022/09/21 10:02:20;;;;;;;1999.90;999.90;;;32.50;99.90;;;;;;5080216;28;20130;-84
2022/09/21 10:05:04;;;;;;;1986.60;903.63;;;32.10;99.90;;;;;;5096814;28;20048;-84
2022/09/21 10:07:40;;;;;;;1999.90;999.90;;;31.70;99.90;;;;;;5079604;28;20048;-84
2022/09/21 10:10:32;;;;;;;1999.90;999.90;;;31.30;99.90;;;;;;5114958;28;20036;-85
2022/09/21 10:13:34;;;;;;;1895.35;760.03;;;31.50;99.90;;;;;;5087147;28;20054;-84
2022/09/21 10:16:04;;;;;;;1999.90;999.90;;;32.50;99.90;;;;;;5086560;28;20510;-83
2022/09/21 10:19:00;;;;;;;1999.90;999.90;;;33.80;99.90;;;;;;5077269;28;20091;-83
2022/09/21 10:21:38;;;;;;;1999.90;999.90;;;34.60;99.90;;;;;;5094329;28;20051;-84
2022/09/21 10:24:05;;;;;;;;;;;35.20;99.90;;;;;;5096854;28;20050;-83
2022/09/21 10:26:35;;;;;;;1999.90;877.08;;;34.80;99.90;;;;;;5096037;28;19926;-83
2022/09/21 10:29:15;;;;;;;699.88;229.20;;;33.30;99.90;;;;;;5079594;28;20050;-83
2022/09/21 10:32:06;;;;;;;1999.90;999.90;;;32.20;99.90;;;;;;5114008;28;20488;-83
2022/09/21 10:34:34;;;;;;;1983.07;557.90;;;32.20;99.90;;;;;;5096540;28;20051;-84
2022/09/21 10:37:21;;;;;;;1999.90;685.13;;;32.60;99.90;;;;;;5095931;28;20070;-83
2022/09/21 10:39:46;;;;;;;1999.90;999.90;;;33.00;99.90;;;;;;5078785;28;20043;-83
2022/09/21 10:42:16;;;;;;;1999.90;999.90;;;32.20;99.90;;;;;;5095781;28;20449;-83
2022/09/21 10:44:52;;;;;;;1999.90;999.90;;;31.20;99.90;;;;;;5113871;28;20043;-83
2022/09/21 10:47:35;;;;;;;1001.17;908.67;;;30.20;99.90;;;;;;5114270;28;20087;-84
2022/09/21 10:50:06;;;;;;;1725.30;999.90;;;29.60;99.90;;;;;;5096549;28;20087;-83
2022/09/21 10:52:40;;;;;;;1999.90;999.90;;;29.20;99.90;;;;;;5113793;28;20035;-83
2022/09/21 10:55:13;;;;;;;1999.90;999.90;;;29.30;99.90;;;;;;5114160;28;20059;-84
2022/09/21 10:57:41;;;;;;;1691.15;800.03;;;30.10;99.90;;;;;;5078443;28;20054;-84
2022/09/21 11:00:30;;;;;;;1999.90;999.90;;;30.20;99.90;;;;;;5114047;28;20044;-83
2022/09/21 11:02:59;;;;;;;1999.90;999.90;;;31.60;99.90;;;;;;5095334;28;20048;-83
2022/09/21 11:05:36;;;;;;;1999.90;999.90;;;32.60;99.90;;;;;;5078924;28;20047;-85
2022/09/21 11:08:24;;;;;;;1999.90;999.90;;;32.70;99.90;;;;;;5114005;28;20050;-83
2022/09/21 11:10:56;;;;;;;1947.60;506.15;;;32.80;99.90;;;;;;5113863;28;20495;-84
2022/09/21 11:13:47;;;;;;;1999.90;999.90;;;33.50;99.90;;;;;;5094988;28;20048;-83
2022/09/21 11:16:23;;;;;;;1999.90;999.90;;;33.10;99.90;;;;;;5078363;28;20051;-85
2022/09/21 11:19:09;;;;;;;1999.90;999.90;;;33.20;99.90;;;;;;5113532;28;20429;-83
2022/09/21 11:21:47;;;;;;;1999.90;999.90;;;33.20;99.90;;;;;;5113227;28;20133;-83
2022/09/21 11:24:24;;;;;;;1999.90;999.90;;;31.00;99.90;;;;;;5112342;28;20407;-84
2022/09/21 11:26:56;;;;;;;1999.90;999.90;;;31.30;99.90;;;;;;5112922;28;20070;-83
2022/09/21 11:29:42;;;;;;;1505.40;620.08;;;31.20;99.90;;;;;;5095429;28;20051;-83
2022/09/21 11:32:46;;;;;;;1999.90;999.90;;;32.90;99.90;;;;;;5094728;28;20553;-86
2022/09/21 11:35:40;;;;;;;1999.90;999.90;;;33.90;99.90;;;;;;5053989;28;20442;-84
2022/09/21 11:38:40;;;;;;;1999.90;999.90;;;34.10;99.90;;;;;;5095089;28;20541;-84
2022/09/21 11:41:12;;;;;;;1999.90;746.67;;;34.20;99.90;;;;;;5113268;28;20126;-84
2022/09/21 11:44:02;;;;;;;1999.90;999.90;;;34.70;99.90;;;;;;5112740;28;20044;-84
2022/09/21 11:46:32;;;;;;;1999.90;999.90;;;34.70;99.90;;;;;;5110360;28;20043;-86
2022/09/21 11:49:26;;;;;;;1999.90;999.90;;;35.10;99.90;;;;;;5076974;28;20446;-84
2022/09/21 11:52:23;;;;;;;1999.90;999.90;;;35.30;99.90;;;;;;5077576;28;20462;-84
2022/09/21 11:55:31;;;;;;;1999.90;999.90;;;33.90;99.90;;;;;;5094270;28;20047;-85
2022/09/21 11:58:03;;;;;;;1999.90;865.00;;;30.00;99.90;;;;;;5046695;28;20048;-83
2022/09/21 12:00:43;;;;;;;1073.50;231.48;;;29.30;99.90;;;;;;5112596;28;20047;-83
2022/09/21 12:03:50;;;;;;;1847.05;958.97;;;27.70;99.90;;;;;;5094492;28;20101;-84
2022/09/21 12:06:29;;;;;;;1999.90;922.80;;;27.40;99.90;;;;;;5101182;28;20087;-85
2022/09/21 12:09:21;;;;;;;1999.90;999.90;;;26.40;99.90;;;;;;5094504;28;20044;-84
2022/09/21 12:11:55;;;;;;;1668.07;999.90;;;26.00;99.90;;;;;;5110733;28;20051;-84
2022/09/21 12:14:33;;;;;;;1999.90;999.90;;;25.40;99.90;;;;;;5094369;28;20093;-84
2022/09/21 12:17:07;;;;;;;1290.25;999.90;;;25.20;99.90;;;;;;5111466;28;20565;-84
2022/09/21 12:19:47;;;;;;;576.38;533.38;;;24.80;99.90;;;;;;5077750;28;20120;-83
2022/09/21 12:22:33;;;;;;;1290.43;893.92;;;24.30;99.90;;;;;;5112026;28;20073;-82
2022/09/21 12:25:01;;;;;;;379.58;351.38;;;23.60;99.90;;;;;;5094271;28;20130;-84
2022/09/21 12:27:51;;;;;;;284.20;265.65;;;23.40;99.90;;;;;;5092857;28;20547;-83
2022/09/21 12:30:22;;;;;;;148.30;139.50;;;23.20;99.90;;;;;;5077046;28;20047;-83
2022/09/21 12:32:52;;;;;;;212.60;199.90;;;22.90;99.90;;;;;;5111883;28;20166;-82